Time;durP1;ratioP1;P1;durP2;ratioP2;P2;SDS_P1;SDS_P2;PMS_P1;PMS_P2;Temp;Humidity;BMP_temperature;BMP_pressure;BME280_temperature;BME280_humidity;BME280_pressure;Samples;Min_cycle;Max_cycle;Signal;HPM_P1;HPM_P2
2023/01/31 00:00:01;;;;;;;4.65;0.68;;;4.30;99.90;;;;;;5032329;28;20048;-85
2023/01/31 00:02:27;;;;;;;3.80;0.70;;;4.50;99.90;;;;;;5048835;28;20033;-85
2023/01/31 00:04:52;;;;;;;5.20;0.60;;;3.80;99.90;;;;;;5034235;28;20486;-85
2023/01/31 00:07:18;;;;;;;2.08;0.60;;;4.20;99.90;;;;;;5045932;28;20371;-85
2023/01/31 00:09:44;;;;;;;8.35;0.88;;;4.80;99.90;;;;;;5032763;28;20386;-84
2023/01/31 00:12:09;;;;;;;6.32;0.93;;;4.10;99.90;;;;;;5044421;28;20048;-85
2023/01/31 00:14:35;;;;;;;9.18;0.70;;;3.10;99.90;;;;;;5035032;28;20044;-85
2023/01/31 00:17:00;;;;;;;7.45;0.90;;;3.30;99.90;;;;;;5021630;28;20132;-85
2023/01/31 00:19:27;;;;;;;6.80;0.95;;;3.30;99.90;;;;;;5046028;28;20033;-85
2023/01/31 00:21:53;;;;;;;5.68;0.60;;;4.70;99.90;;;;;;5032206;28;20046;-85
2023/01/31 00:24:18;;;;;;;8.07;1.00;;;3.20;99.90;;;;;;5044794;28;20738;-87
2023/01/31 00:26:44;;;;;;;9.52;1.80;;;3.70;99.90;;;;;;5047108;28;20042;-85
2023/01/31 00:29:11;;;;;;;7.57;0.80;;;4.10;99.90;;;;;;5042659;28;20048;-85
2023/01/31 00:31:36;;;;;;;6.78;0.90;;;3.30;99.90;;;;;;5045499;28;20048;-85
2023/01/31 00:34:02;;;;;;;3.13;0.57;;;4.10;99.90;;;;;;5026806;28;20037;-85
2023/01/31 00:36:31;;;;;;;5.80;0.80;;;2.40;99.90;;;;;;5031880;28;20068;-86
2023/01/31 00:39:00;;;;;;;9.30;1.08;;;3.00;99.90;;;;;;5042195;28;20084;-85
2023/01/31 00:41:28;;;;;;;11.30;0.93;;;3.00;99.90;;;;;;5046428;28;20063;-84
2023/01/31 00:43:53;;;;;;;3.42;0.70;;;3.10;99.90;;;;;;5041705;28;20038;-85
2023/01/31 00:46:19;;;;;;;12.88;1.30;;;4.20;99.90;;;;;;5049095;28;20118;-85
2023/01/31 00:48:45;;;;;;;11.50;1.08;;;2.90;99.90;;;;;;5023393;28;20115;-85
2023/01/31 00:51:11;;;;;;;8.75;1.77;;;4.10;99.90;;;;;;5038780;28;20457;-85
2023/01/31 00:53:37;;;;;;;3.33;0.70;;;4.70;99.90;;;;;;5043251;28;20041;-84
2023/01/31 00:56:06;;;;;;;4.55;0.80;;;3.10;99.90;;;;;;5027386;28;20459;-84
2023/01/31 00:58:33;;;;;;;7.20;1.25;;;3.80;99.90;;;;;;5044546;28;20045;-85
2023/01/31 01:01:11;;;;;;;2.83;0.47;;;2.90;99.90;;;;;;5017795;28;20087;-86
2023/01/31 01:03:38;;;;;;;3.92;0.50;;;3.00;99.90;;;;;;5041174;28;20463;-86
2023/01/31 01:06:05;;;;;;;7.05;0.80;;;2.20;99.90;;;;;;5041298;28;20037;-85
2023/01/31 01:08:31;;;;;;;6.60;0.60;;;3.90;99.90;;;;;;5023607;28;20037;-85
2023/01/31 01:11:04;;;;;;;1.52;0.68;;;3.40;99.90;;;;;;5041762;28;20041;-85
2023/01/31 01:13:30;;;;;;;5.72;0.50;;;3.20;99.90;;;;;;5041298;28;20037;-84
2023/01/31 01:15:55;;;;;;;5.47;1.15;;;2.20;99.90;;;;;;5023340;28;20114;-84
2023/01/31 01:18:21;;;;;;;7.22;0.70;;;4.40;99.90;;;;;;5036668;28;20044;-85
2023/01/31 01:20:46;;;;;;;6.22;0.88;;;2.80;99.90;;;;;;5037555;28;20090;-84
2023/01/31 01:23:12;;;;;;;7.20;1.13;;;2.80;99.90;;;;;;5034804;28;20056;-84
2023/01/31 01:25:43;;;;;;;4.55;0.80;;;2.70;99.90;;;;;;5044525;28;20404;-84
2023/01/31 01:28:09;;;;;;;4.63;0.60;;;2.60;99.90;;;;;;5024665;28;20057;-85
2023/01/31 01:30:37;;;;;;;8.70;1.27;;;4.20;99.90;;;;;;5022269;28;20037;-85
2023/01/31 01:33:03;;;;;;;5.85;0.63;;;4.20;99.90;;;;;;5030170;28;20047;-84
2023/01/31 01:35:29;;;;;;;4.95;0.50;;;3.70;99.90;;;;;;5015693;28;20033;-84
2023/01/31 01:37:55;;;;;;;2.10;0.47;;;1.70;99.90;;;;;;5015329;28;20045;-84
2023/01/31 01:40:21;;;;;;;4.93;0.75;;;3.40;99.90;;;;;;5040404;28;20418;-85
2023/01/31 01:42:47;;;;;;;2.53;0.55;;;3.40;99.90;;;;;;5037951;28;20489;-84
2023/01/31 01:45:17;;;;;;;3.90;0.40;;;3.10;99.90;;;;;;5042538;28;20053;-85
2023/01/31 01:47:49;;;;;;;3.53;0.70;;;2.70;99.90;;;;;;5044011;28;20072;-84
2023/01/31 01:50:20;;;;;;;8.05;0.90;;;2.40;99.90;;;;;;5035234;28;20098;-84
2023/01/31 01:53:07;;;;;;;4.93;0.50;;;2.50;99.90;;;;;;5040305;28;20042;-84
2023/01/31 01:55:46;;;;;;;3.25;0.30;;;3.60;99.90;;;;;;5024183;28;20053;-84
2023/01/31 01:58:32;;;;;;;6.22;0.70;;;1.40;99.90;;;;;;5040039;28;20052;-84
2023/01/31 02:00:58;;;;;;;;;;;4.10;99.90;;;;;;5036089;28;20045;-85
2023/01/31 02:03:24;;;;;;;2.90;0.50;;;3.70;99.90;;;;;;5040910;28;20373;-84
2023/01/31 02:05:59;;;;;;;8.27;1.35;;;4.30;99.90;;;;;;5040565;28;20041;-84
2023/01/31 02:08:28;;;;;;;4.13;0.50;;;3.40;99.90;;;;;;5041020;28;20059;-85
2023/01/31 02:11:06;;;;;;;5.22;0.50;;;3.20;99.90;;;;;;5038683;28;20433;-85
2023/01/31 02:13:33;;;;;;;3.67;1.45;;;2.70;99.90;;;;;;5040103;28;20060;-84
2023/01/31 02:15:58;;;;;;;5.90;0.85;;;2.40;99.90;;;;;;5043757;28;20044;-85
2023/01/31 02:18:25;;;;;;;6.72;0.80;;;3.70;99.90;;;;;;5042617;28;20394;-85
2023/01/31 02:21:09;;;;;;;2.92;0.50;;;3.80;99.90;;;;;;5039979;28;20041;-84
2023/01/31 02:23:53;;;;;;;3.45;0.50;;;2.80;99.90;;;;;;5032790;28;20057;-84
2023/01/31 02:26:53;;;;;;;2.15;0.38;;;2.80;99.90;;;;;;5042548;28;20052;-85
2023/01/31 02:29:36;;;;;;;4.45;0.50;;;2.80;99.90;;;;;;5023013;28;20114;-84
2023/01/31 02:32:14;;;;;;;3.53;0.60;;;2.80;99.90;;;;;;5034198;28;20053;-85
2023/01/31 02:35:06;;;;;;;2.42;0.38;;;3.40;99.90;;;;;;5034656;28;20049;-84
2023/01/31 02:38:12;;;;;;;2.13;0.40;;;2.90;99.90;;;;;;5043467;28;20048;-85
2023/01/31 02:40:51;;;;;;;4.90;0.45;;;3.00;99.90;;;;;;4929296;28;20058;-85
2023/01/31 02:43:22;;;;;;;5.45;0.50;;;3.00;99.90;;;;;;4976858;28;20078;-86
2023/01/31 02:45:55;;;;;;;7.50;0.60;;;4.00;99.90;;;;;;4985048;28;20479;-85
2023/01/31 02:48:34;;;;;;;2.15;0.40;;;3.00;99.90;;;;;;4978838;28;20075;-85
2023/01/31 02:51:14;;;;;;;2.38;0.30;;;3.70;99.90;;;;;;4978320;28;20133;-84
2023/01/31 02:53:59;;;;;;;2.95;0.30;;;3.10;99.90;;;;;;4978250;28;20114;-86
2023/01/31 02:56:29;;;;;;;4.35;0.60;;;4.20;99.90;;;;;;4977437;28;20054;-85
2023/01/31 02:58:57;;;;;;;4.97;0.75;;;4.50;99.90;;;;;;4978526;28;20062;-85
2023/01/31 03:01:34;;;;;;;5.43;0.50;;;3.20;99.90;;;;;;4960902;28;20471;-85
2023/01/31 03:04:03;;;;;;;6.35;0.60;;;3.50;99.90;;;;;;4979629;28;20149;-86
2023/01/31 03:06:32;;;;;;;9.82;1.00;;;3.20;99.90;;;;;;4981880;28;20558;-85
2023/01/31 03:09:38;;;;;;;3.55;0.50;;;4.70;99.90;;;;;;4983761;28;20050;-85
2023/01/31 03:12:21;;;;;;;8.00;0.70;;;3.30;99.90;;;;;;4911504;29;20052;-84
2023/01/31 03:15:25;;;;;;;7.25;0.93;;;3.30;99.90;;;;;;4911720;29;20122;-87
2023/01/31 03:18:09;;;;;;;6.50;0.55;;;3.40;99.90;;;;;;4945877;28;20562;-85
2023/01/31 03:21:00;;;;;;;3.85;0.50;;;3.40;99.90;;;;;;4943128;28;20043;-86
2023/01/31 03:23:30;;;;;;;1.92;0.40;;;3.40;99.90;;;;;;4932173;29;20047;-85
2023/01/31 03:25:58;;;;;;;1.05;0.43;;;4.20;99.90;;;;;;4952966;29;20168;-87
2023/01/31 03:28:30;;;;;;;5.97;1.05;;;2.70;99.90;;;;;;4938306;29;20055;-84
2023/01/31 03:31:01;;;;;;;6.60;0.80;;;3.80;99.90;;;;;;4953674;28;20051;-86
2023/01/31 03:33:32;;;;;;;12.63;0.88;;;4.00;99.90;;;;;;4947209;28;20035;-84
2023/01/31 03:36:32;;;;;;;9.82;0.90;;;3.80;99.90;;;;;;4945907;29;20059;-85
2023/01/31 03:39:05;;;;;;;5.13;1.05;;;3.60;99.90;;;;;;4954098;28;20439;-86
2023/01/31 03:41:37;;;;;;;5.22;0.60;;;3.60;99.90;;;;;;4946909;28;20050;-85
2023/01/31 03:44:25;;;;;;;3.45;0.90;;;3.60;99.90;;;;;;5017352;28;20066;-87
2023/01/31 03:46:57;;;;;;;3.63;0.50;;;3.60;99.90;;;;;;5020106;28;20052;-85
2023/01/31 03:49:27;;;;;;;7.60;1.00;;;3.00;99.90;;;;;;5022261;28;20133;-86
2023/01/31 03:51:59;;;;;;;8.32;0.50;;;4.40;99.90;;;;;;5005427;28;20049;-85
2023/01/31 03:54:30;;;;;;;8.23;1.05;;;5.30;99.90;;;;;;5033803;28;20053;-84
2023/01/31 03:57:07;;;;;;;2.53;0.30;;;3.70;99.90;;;;;;5059777;28;20056;-85
2023/01/31 03:59:38;;;;;;;6.43;0.80;;;3.60;99.90;;;;;;5062571;28;20049;-85
2023/01/31 04:02:06;;;;;;;4.45;0.70;;;4.80;99.90;;;;;;5062779;28;20048;-85
2023/01/31 04:04:49;;;;;;;6.97;1.20;;;5.10;99.90;;;;;;5058291;28;20055;-86
2023/01/31 04:07:16;;;;;;;3.13;0.70;;;4.90;99.90;;;;;;5065201;28;20105;-85
2023/01/31 04:09:42;;;;;;;7.72;1.08;;;4.70;99.90;;;;;;5064181;28;20056;-85
2023/01/31 04:12:12;;;;;;;11.77;0.85;;;5.40;99.90;;;;;;5065709;28;20029;-85
2023/01/31 04:14:38;;;;;;;7.35;1.30;;;3.40;99.90;;;;;;5055691;28;20057;-85
2023/01/31 04:17:03;;;;;;;5.50;0.82;;;3.60;99.90;;;;;;5053955;28;20041;-85
2023/01/31 04:19:29;;;;;;;3.17;0.50;;;4.70;99.90;;;;;;5061399;28;20049;-85
2023/01/31 04:21:55;;;;;;;5.95;0.80;;;4.80;99.90;;;;;;5067367;28;20501;-85
2023/01/31 04:24:21;;;;;;;4.68;0.85;;;5.20;99.90;;;;;;5061079;28;20132;-85
2023/01/31 04:26:47;;;;;;;6.88;1.00;;;4.60;99.90;;;;;;5065104;28;20063;-85
2023/01/31 04:29:12;;;;;;;5.45;0.70;;;4.10;99.90;;;;;;5065101;28;20400;-85
2023/01/31 04:31:39;;;;;;;8.05;0.98;;;3.60;99.90;;;;;;5063610;28;20036;-85
2023/01/31 04:34:04;;;;;;;6.55;1.23;;;3.70;99.90;;;;;;5061054;28;20124;-86
2023/01/31 04:36:30;;;;;;;8.93;1.17;;;5.00;99.90;;;;;;5057435;28;20119;-85
2023/01/31 04:38:56;;;;;;;8.48;0.80;;;4.90;99.90;;;;;;5065587;28;20032;-86
2023/01/31 04:41:21;;;;;;;6.95;1.00;;;5.40;99.90;;;;;;5058642;28;20485;-85
2023/01/31 04:43:47;;;;;;;4.45;0.85;;;4.20;99.90;;;;;;5036107;28;20033;-85
2023/01/31 04:46:13;;;;;;;7.38;1.00;;;5.40;99.90;;;;;;5041836;28;20042;-85
2023/01/31 04:48:40;;;;;;;7.88;1.30;;;5.60;99.90;;;;;;5041254;28;20041;-85
2023/01/31 04:51:06;;;;;;;9.27;1.65;;;4.30;99.90;;;;;;5048667;28;20053;-85
2023/01/31 04:53:32;;;;;;;5.10;0.90;;;4.20;99.90;;;;;;5024120;28;20073;-86
2023/01/31 04:55:57;;;;;;;7.43;1.40;;;5.30;99.90;;;;;;5042341;28;20091;-85
2023/01/31 04:58:23;;;;;;;10.80;1.10;;;3.60;99.90;;;;;;5043969;28;20037;-85
2023/01/31 05:00:49;;;;;;;12.32;1.08;;;5.30;99.90;;;;;;5043648;28;20037;-85
2023/01/31 05:03:14;;;;;;;8.00;0.90;;;5.40;99.90;;;;;;5044829;28;20048;-85
2023/01/31 05:05:40;;;;;;;11.85;1.35;;;5.30;99.90;;;;;;5045014;28;20065;-86
2023/01/31 05:08:06;;;;;;;6.97;1.13;;;4.60;99.90;;;;;;5026584;28;20529;-85
2023/01/31 05:10:33;;;;;;;12.95;1.38;;;3.80;99.90;;;;;;5044673;28;20041;-83
2023/01/31 05:12:59;;;;;;;7.78;1.70;;;4.50;99.90;;;;;;5023337;28;20555;-85
2023/01/31 05:15:25;;;;;;;7.40;0.77;;;6.00;99.90;;;;;;5044394;28;20041;-85
2023/01/31 05:18:01;;;;;;;7.28;1.17;;;5.70;99.90;;;;;;5025992;28;20469;-85
2023/01/31 05:20:35;;;;;;;6.18;1.13;;;4.20;99.90;;;;;;5046697;28;20051;-85
2023/01/31 05:23:01;;;;;;;5.60;0.80;;;5.80;99.90;;;;;;5042244;28;20048;-85
2023/01/31 05:25:27;;;;;;;6.03;1.02;;;4.60;99.90;;;;;;5023654;28;20482;-84
2023/01/31 05:27:53;;;;;;;7.75;1.17;;;6.00;99.90;;;;;;5006704;28;20076;-84
2023/01/31 05:30:19;;;;;;;4.95;1.00;;;4.40;99.90;;;;;;5040849;28;20481;-85
2023/01/31 05:32:47;;;;;;;8.35;1.55;;;4.80;99.90;;;;;;5023179;28;20099;-84
2023/01/31 05:35:13;;;;;;;6.93;1.13;;;4.80;99.90;;;;;;5043582;28;20037;-84
2023/01/31 05:37:42;;;;;;;5.82;1.40;;;5.50;99.90;;;;;;5044309;28;20037;-85
2023/01/31 05:40:12;;;;;;;11.02;1.65;;;5.80;99.90;;;;;;5042569;28;20086;-85
2023/01/31 05:42:38;;;;;;;7.05;0.88;;;4.80;99.90;;;;;;5043376;28;20068;-85
2023/01/31 05:45:05;;;;;;;13.07;1.63;;;4.80;99.90;;;;;;5048010;28;20045;-86
2023/01/31 05:47:30;;;;;;;9.52;1.00;;;4.90;99.90;;;;;;5040772;28;20465;-84
2023/01/31 05:49:56;;;;;;;16.45;2.15;;;6.00;99.90;;;;;;5040799;28;20113;-85
2023/01/31 05:52:22;;;;;;;7.20;1.42;;;6.40;99.90;;;;;;5040614;28;20045;-86
2023/01/31 05:54:47;;;;;;;5.25;0.90;;;6.30;99.90;;;;;;5033032;28;20096;-86
2023/01/31 05:57:14;;;;;;;9.93;1.48;;;4.90;99.90;;;;;;5041555;28;20037;-86
2023/01/31 05:59:39;;;;;;;7.88;1.50;;;3.80;99.90;;;;;;5030366;28;20034;-85
2023/01/31 06:02:05;;;;;;;7.95;1.00;;;5.50;99.90;;;;;;5030402;28;20056;-84
2023/01/31 06:04:31;;;;;;;11.20;1.73;;;5.00;99.90;;;;;;5036629;28;20482;-85
2023/01/31 06:06:57;;;;;;;13.23;1.25;;;5.00;99.90;;;;;;5039135;28;20044;-85
2023/01/31 06:09:22;;;;;;;16.75;2.35;;;6.50;99.90;;;;;;5040826;28;20053;-85
2023/01/31 06:11:48;;;;;;;10.60;1.30;;;5.60;99.90;;;;;;5040264;28;20037;-85
2023/01/31 06:14:14;;;;;;;12.63;1.05;;;6.10;99.90;;;;;;5041184;28;20099;-85
2023/01/31 06:16:39;;;;;;;6.20;1.00;;;5.20;99.90;;;;;;5033698;28;20052;-84
2023/01/31 06:19:05;;;;;;;8.65;1.55;;;6.00;99.90;;;;;;5027351;28;20444;-85
2023/01/31 06:21:31;;;;;;;10.20;1.85;;;5.50;99.90;;;;;;5043289;28;20079;-86
2023/01/31 06:23:56;;;;;;;6.78;1.42;;;6.00;99.90;;;;;;5043606;28;20029;-85
2023/01/31 06:26:23;;;;;;;12.25;1.65;;;6.60;99.90;;;;;;5006155;28;20045;-85
2023/01/31 06:28:49;;;;;;;11.60;1.77;;;5.40;99.90;;;;;;5033209;28;20045;-87
2023/01/31 06:31:14;;;;;;;10.80;1.35;;;6.00;99.90;;;;;;5042260;28;20041;-88
2023/01/31 06:33:40;;;;;;;9.85;1.55;;;6.60;99.90;;;;;;5040302;28;20038;-87
2023/01/31 06:36:06;;;;;;;10.82;1.05;;;6.10;99.90;;;;;;5032889;28;20072;-86
2023/01/31 06:38:32;;;;;;;7.53;1.00;;;5.10;99.90;;;;;;5039907;28;20081;-84
2023/01/31 06:40:58;;;;;;;13.35;1.42;;;6.50;99.90;;;;;;5030063;28;20072;-85
2023/01/31 06:43:23;;;;;;;12.88;2.08;;;5.70;99.90;;;;;;5058720;28;20059;-86
2023/01/31 06:45:49;;;;;;;11.20;1.35;;;5.70;99.90;;;;;;5056315;28;20041;-83
2023/01/31 06:48:15;;;;;;;12.30;1.73;;;6.40;99.90;;;;;;5062491;28;20048;-87
2023/01/31 06:50:43;;;;;;;6.50;1.30;;;5.20;99.90;;;;;;5052360;28;20047;-83
2023/01/31 06:53:08;;;;;;;13.32;1.90;;;6.60;99.90;;;;;;5062956;28;20048;-84
2023/01/31 06:55:34;;;;;;;13.45;2.15;;;6.10;99.90;;;;;;5056642;28;20042;-86
2023/01/31 06:58:00;;;;;;;10.25;1.15;;;5.10;99.90;;;;;;5058408;28;20138;-86
2023/01/31 07:00:26;;;;;;;12.20;1.85;;;6.00;99.90;;;;;;5059079;28;20033;-86
2023/01/31 07:02:52;;;;;;;9.32;1.42;;;5.10;99.90;;;;;;5056194;28;20047;-85
2023/01/31 07:05:19;;;;;;;12.38;1.83;;;6.00;99.90;;;;;;5055029;28;20045;-84
2023/01/31 07:07:46;;;;;;;11.43;1.15;;;6.60;99.90;;;;;;5063065;28;20055;-85
2023/01/31 07:10:12;;;;;;;10.60;1.10;;;4.20;99.90;;;;;;5062040;28;20113;-85
2023/01/31 07:12:38;;;;;;;15.25;1.95;;;6.10;99.90;;;;;;5058821;28;20103;-86
2023/01/31 07:15:05;;;;;;;10.10;1.20;;;6.00;99.90;;;;;;5041063;28;20501;-86
2023/01/31 07:17:32;;;;;;;4.78;1.42;;;5.10;99.90;;;;;;5059262;28;20524;-86
2023/01/31 07:19:58;;;;;;;7.25;1.70;;;6.10;99.90;;;;;;5061731;28;20041;-85
2023/01/31 07:22:23;;;;;;;7.97;1.15;;;5.10;99.90;;;;;;5057108;28;20041;-86
2023/01/31 07:24:49;;;;;;;3.95;1.10;;;6.00;99.90;;;;;;5051957;28;20033;-87
2023/01/31 07:27:15;;;;;;;9.75;1.90;;;6.50;99.90;;;;;;5061632;28;20044;-84
2023/01/31 07:29:42;;;;;;;11.05;1.38;;;6.30;99.90;;;;;;5059935;28;20041;-86
2023/01/31 07:32:08;;;;;;;9.02;1.00;;;5.60;99.90;;;;;;5058331;28;20033;-84
2023/01/31 07:34:34;;;;;;;14.95;1.52;;;4.80;99.90;;;;;;5065421;28;20099;-84
2023/01/31 07:37:00;;;;;;;9.80;1.75;;;5.30;99.90;;;;;;5054812;28;20460;-85
2023/01/31 07:39:26;;;;;;;8.40;1.20;;;4.60;99.90;;;;;;5059393;28;20051;-83
2023/01/31 07:41:52;;;;;;;8.93;1.38;;;6.70;99.90;;;;;;5048247;28;20054;-84
2023/01/31 07:44:18;;;;;;;10.95;1.40;;;6.70;99.90;;;;;;5013884;28;20064;-84
2023/01/31 07:46:43;;;;;;;6.57;1.13;;;6.50;99.90;;;;;;5040992;28;20063;-85
2023/01/31 07:49:09;;;;;;;9.27;1.60;;;6.80;99.90;;;;;;5042526;28;20036;-87
2023/01/31 07:51:37;;;;;;;10.88;1.65;;;5.50;99.90;;;;;;5041516;28;20037;-84
2023/01/31 07:54:08;;;;;;;4.85;1.15;;;6.20;99.90;;;;;;5018290;28;20398;-86
2023/01/31 07:56:33;;;;;;;5.85;0.82;;;5.50;99.90;;;;;;5037796;28;20041;-84
2023/01/31 07:58:59;;;;;;;10.23;0.88;;;6.70;99.90;;;;;;5035109;28;20045;-84
2023/01/31 08:04:15;;;;;;;10.55;1.33;;;6.90;99.90;;;;;;5036524;28;20045;-85
2023/01/31 08:06:43;;;;;;;8.48;1.20;;;5.60;99.90;;;;;;5014635;28;20128;-85
2023/01/31 08:09:09;;;;;;;9.93;1.30;;;6.90;99.90;;;;;;5024366;28;20121;-84
2023/01/31 08:11:35;;;;;;;4.78;0.80;;;7.10;99.90;;;;;;5042451;28;20108;-84
2023/01/31 08:14:01;;;;;;;12.45;1.17;;;6.50;99.90;;;;;;5024560;28;20045;-86
2023/01/31 08:16:27;;;;;;;6.82;1.10;;;5.70;99.90;;;;;;5016520;28;20115;-82
2023/01/31 08:18:53;;;;;;;8.13;1.05;;;5.80;99.90;;;;;;5035296;28;20045;-86
2023/01/31 08:21:19;;;;;;;2.45;0.63;;;5.90;99.90;;;;;;5050712;28;20519;-84
2023/01/31 08:23:45;;;;;;;13.05;1.33;;;7.20;99.90;;;;;;5042374;28;20099;-85
2023/01/31 08:26:14;;;;;;;10.63;1.40;;;7.20;99.90;;;;;;5041883;28;20087;-86
2023/01/31 08:28:41;;;;;;;7.28;1.30;;;7.40;99.90;;;;;;5042544;28;20080;-85
2023/01/31 08:31:11;;;;;;;21.23;1.65;;;6.80;99.90;;;;;;5043354;28;20029;-86
2023/01/31 08:33:37;;;;;;;9.98;0.80;;;6.50;99.90;;;;;;5040637;28;20124;-86
2023/01/31 08:36:18;;;;;;;4.45;1.00;;;7.30;99.90;;;;;;5044974;28;20072;-85
2023/01/31 08:38:50;;;;;;;7.72;0.93;;;6.00;99.90;;;;;;5041774;28;20513;-90
2023/01/31 08:41:18;;;;;;;9.73;1.10;;;6.60;99.90;;;;;;5048112;28;20080;-84
2023/01/31 08:43:44;;;;;;;4.13;1.33;;;7.40;99.90;;;;;;5063714;28;20044;-85
2023/01/31 08:46:10;;;;;;;9.05;1.20;;;7.20;99.90;;;;;;5067961;28;20066;-87
2023/01/31 08:48:37;;;;;;;7.13;1.27;;;7.10;99.90;;;;;;5060324;28;20114;-87
2023/01/31 08:51:14;;;;;;;7.47;1.13;;;6.70;99.90;;;;;;5061212;28;20041;-88
2023/01/31 08:53:46;;;;;;;10.30;1.30;;;7.40;99.90;;;;;;5063132;28;20110;-90
2023/01/31 08:56:13;;;;;;;11.63;1.50;;;6.00;99.90;;;;;;5060008;28;20174;-87
2023/01/31 08:58:41;;;;;;;9.43;1.10;;;7.40;99.90;;;;;;5061825;28;20041;-88
2023/01/31 09:01:12;;;;;;;4.70;0.90;;;7.30;99.90;;;;;;5060741;28;20060;-88
2023/01/31 09:03:38;;;;;;;6.68;1.10;;;6.10;99.90;;;;;;5058583;28;20049;-87
2023/01/31 09:06:06;;;;;;;6.85;1.10;;;7.50;99.90;;;;;;5059785;28;20403;-88
2023/01/31 09:08:32;;;;;;;13.77;1.13;;;6.70;99.90;;;;;;5059980;28;20041;-87
2023/01/31 09:11:02;;;;;;;10.70;1.77;;;6.30;99.90;;;;;;5052677;28;20068;-87
2023/01/31 09:13:29;;;;;;;8.07;1.00;;;6.80;99.90;;;;;;5059139;28;20049;-87
2023/01/31 09:16:06;;;;;;;9.35;1.35;;;7.70;99.90;;;;;;5061719;28;20048;-85
2023/01/31 09:18:33;;;;;;;9.85;1.30;;;6.30;99.90;;;;;;5053490;28;20072;-85
2023/01/31 09:21:07;;;;;;;9.35;1.52;;;7.60;99.90;;;;;;5061241;28;20041;-87
2023/01/31 09:23:33;;;;;;;11.23;1.00;;;6.30;99.90;;;;;;5059548;28;20037;-88
2023/01/31 09:25:59;;;;;;;12.25;1.52;;;5.80;99.90;;;;;;5054215;28;20112;-89
2023/01/31 09:28:25;;;;;;;5.40;0.88;;;7.50;99.90;;;;;;5062044;28;20127;-88
2023/01/31 09:30:52;;;;;;;9.23;1.15;;;6.40;99.90;;;;;;5061473;28;20108;-87
2023/01/31 09:33:19;;;;;;;9.68;1.30;;;6.90;99.90;;;;;;5060930;28;20045;-88
2023/01/31 09:35:56;;;;;;;12.68;1.30;;;6.40;99.90;;;;;;5065450;28;20041;-88
2023/01/31 09:38:22;;;;;;;4.78;0.90;;;6.50;99.90;;;;;;5060793;28;20106;-88
2023/01/31 09:40:48;;;;;;;8.23;1.20;;;6.70;99.90;;;;;;5060249;28;20102;-88
2023/01/31 09:43:16;;;;;;;10.02;1.95;;;5.70;99.90;;;;;;5061506;28;20124;-87
2023/01/31 09:45:44;;;;;;;9.57;1.38;;;6.40;99.90;;;;;;5047373;28;20060;-88
2023/01/31 09:48:18;;;;;;;12.88;1.20;;;6.60;99.90;;;;;;5059826;28;20498;-89
2023/01/31 09:50:53;;;;;;;13.02;1.70;;;7.60;99.90;;;;;;5052848;28;20047;-88
2023/01/31 09:53:21;;;;;;;8.75;1.08;;;6.40;99.90;;;;;;5061116;28;20049;-87
2023/01/31 09:56:10;;;;;;;11.13;1.48;;;5.70;99.90;;;;;;5060445;28;20505;-87
2023/01/31 09:58:48;;;;;;;4.60;1.17;;;6.60;99.90;;;;;;5060501;28;20049;-89
2023/01/31 10:01:34;;;;;;;3.72;1.13;;;6.40;99.90;;;;;;5051368;28;20044;-88
2023/01/31 10:04:15;;;;;;;7.28;1.08;;;6.40;99.90;;;;;;5053179;28;20131;-88
2023/01/31 10:06:51;;;;;;;10.73;1.20;;;6.50;99.90;;;;;;5058519;28;20069;-87
2023/01/31 10:09:30;;;;;;;9.32;1.17;;;7.00;99.90;;;;;;5058034;28;20511;-88
2023/01/31 10:12:20;;;;;;;9.95;1.35;;;6.50;99.90;;;;;;5058884;28;20041;-87
2023/01/31 10:15:12;;;;;;;14.23;1.25;;;6.50;99.90;;;;;;5062455;28;20497;-88
2023/01/31 10:17:42;;;;;;;8.00;0.90;;;6.50;99.90;;;;;;5054851;28;20385;-87
2023/01/31 10:20:28;;;;;;;10.63;1.30;;;7.30;99.90;;;;;;5062669;28;20052;-87
2023/01/31 10:23:15;;;;;;;6.68;1.17;;;7.60;99.90;;;;;;5047849;28;20049;-87
2023/01/31 10:26:13;;;;;;;12.95;1.40;;;6.60;99.90;;;;;;5060010;28;20109;-87
2023/01/31 10:28:53;;;;;;;4.70;1.58;;;6.50;99.90;;;;;;4999609;28;20085;-87
2023/01/31 10:31:34;;;;;;;9.55;0.93;;;6.50;99.90;;;;;;5024682;28;20056;-87
2023/01/31 10:34:10;;;;;;;9.05;1.98;;;6.60;99.90;;;;;;5013912;28;20065;-88
2023/01/31 10:36:44;;;;;;;16.88;1.75;;;6.50;99.90;;;;;;5021180;28;20533;-87
2023/01/31 10:39:34;;;;;;;4.68;1.00;;;6.70;99.90;;;;;;5019320;28;20056;-86
2023/01/31 10:42:10;;;;;;;4.05;1.25;;;6.60;99.90;;;;;;5040798;28;20099;-84
2023/01/31 10:45:00;;;;;;;6.97;1.10;;;7.90;99.90;;;;;;5040420;28;20132;-84
2023/01/31 10:47:33;;;;;;;7.10;0.95;;;6.60;99.90;;;;;;5020832;28;20107;-84
2023/01/31 10:50:02;;;;;;;3.88;0.90;;;7.70;99.90;;;;;;5026525;28;20041;-84
2023/01/31 10:52:52;;;;;;;3.55;0.68;;;7.90;99.90;;;;;;5033834;28;20128;-85
2023/01/31 10:55:41;;;;;;;7.80;0.82;;;7.10;99.90;;;;;;5036880;28;20070;-87
2023/01/31 10:58:14;;;;;;;8.77;1.30;;;6.60;99.90;;;;;;5013469;28;20473;-88
2023/01/31 11:00:40;;;;;;;9.32;1.75;;;7.00;99.90;;;;;;5024213;28;20065;-84
2023/01/31 11:03:05;;;;;;;8.73;0.93;;;6.90;99.90;;;;;;5037729;28;20134;-82
2023/01/31 11:05:36;;;;;;;5.28;0.90;;;7.90;99.90;;;;;;5036339;28;20052;-85
2023/01/31 11:08:17;;;;;;;5.05;0.80;;;8.00;99.90;;;;;;5060110;28;20041;-83
2023/01/31 11:10:52;;;;;;;7.47;1.05;;;6.70;99.90;;;;;;5061821;28;20049;-85
2023/01/31 11:13:19;;;;;;;8.98;1.23;;;6.70;99.90;;;;;;5064166;28;20428;-84
2023/01/31 11:15:47;;;;;;;8.43;1.00;;;6.80;99.90;;;;;;5051290;28;20509;-85
2023/01/31 11:18:35;;;;;;;3.42;0.75;;;6.80;99.90;;;;;;5055326;28;20036;-85
2023/01/31 11:21:02;;;;;;;7.07;1.25;;;6.80;99.90;;;;;;5058213;28;20044;-85
2023/01/31 11:23:31;;;;;;;13.35;1.35;;;6.80;99.90;;;;;;5063750;28;20048;-85
2023/01/31 11:25:58;;;;;;;8.93;1.15;;;7.00;99.90;;;;;;5059618;28;20044;-85
2023/01/31 11:28:37;;;;;;;4.15;0.85;;;5.70;99.90;;;;;;5061784;28;20040;-85
2023/01/31 11:31:18;;;;;;;6.65;1.15;;;7.50;99.90;;;;;;5065337;28;20548;-85
2023/01/31 11:33:55;;;;;;;6.75;1.17;;;6.80;99.90;;;;;;5065675;28;20045;-83
2023/01/31 11:36:23;;;;;;;7.80;0.73;;;6.80;99.90;;;;;;5065917;28;20064;-82
2023/01/31 11:38:53;;;;;;;11.60;1.70;;;7.40;99.90;;;;;;5057195;28;20417;-85
2023/01/31 11:41:36;;;;;;;8.38;1.27;;;6.80;99.90;;;;;;5069364;28;20523;-83
2023/01/31 11:44:16;;;;;;;9.27;1.02;;;7.40;99.90;;;;;;5063046;28;20557;-86
2023/01/31 11:46:43;;;;;;;7.05;1.10;;;6.90;99.90;;;;;;5058482;28;20049;-86
2023/01/31 11:49:13;;;;;;;6.78;1.05;;;7.50;99.90;;;;;;5056060;28;20053;-85
2023/01/31 11:51:39;;;;;;;12.38;1.52;;;6.90;99.90;;;;;;5064901;28;20119;-85
2023/01/31 11:54:05;;;;;;;14.07;1.00;;;8.00;99.90;;;;;;5059566;28;20428;-84
2023/01/31 11:56:36;;;;;;;11.90;1.30;;;7.00;99.90;;;;;;5062916;28;20083;-85
2023/01/31 11:59:07;;;;;;;10.98;1.23;;;7.00;99.90;;;;;;5037818;28;20060;-85
2023/01/31 12:01:35;;;;;;;8.40;1.15;;;8.40;99.90;;;;;;5065060;28;20476;-85
2023/01/31 12:04:03;;;;;;;10.73;1.17;;;7.70;99.90;;;;;;5063793;28;20446;-85
2023/01/31 12:06:40;;;;;;;11.13;1.50;;;7.10;99.90;;;;;;5061433;28;20043;-86
2023/01/31 12:09:24;;;;;;;6.22;1.05;;;7.30;99.90;;;;;;5054167;28;20456;-85
2023/01/31 12:11:58;;;;;;;4.90;1.00;;;8.00;99.90;;;;;;5065038;28;20120;-85
2023/01/31 12:22:13;;;;;;;11.20;1.60;;;7.40;99.90;;;;;;5059407;28;20044;-83
2023/01/31 12:24:59;;;;;;;8.27;1.00;;;7.40;99.90;;;;;;5054761;28;20052;-85
2023/01/31 12:28:16;;;;;;;5.75;1.30;;;7.50;99.90;;;;;;5034000;28;20431;-85
2023/01/31 12:31:13;;;;;;;12.70;1.38;;;7.60;99.90;;;;;;5050289;28;20374;-86
2023/01/31 12:33:45;;;;;;;7.28;0.82;;;7.60;99.90;;;;;;5022142;28;20044;-87
2023/01/31 12:36:40;;;;;;;12.23;1.15;;;7.60;99.90;;;;;;5062500;28;20110;-85
2023/01/31 12:39:30;;;;;;;7.93;1.10;;;7.70;99.90;;;;;;5053275;28;20053;-85
2023/01/31 12:42:06;;;;;;;13.20;1.40;;;7.70;99.90;;;;;;5053151;28;20128;-86
2023/01/31 12:44:50;;;;;;;11.50;0.93;;;7.80;99.90;;;;;;5066850;28;20118;-88
2023/01/31 12:47:50;;;;;;;9.82;1.17;;;7.80;99.90;;;;;;5049121;28;20040;-87
2023/01/31 12:50:25;;;;;;;4.95;1.00;;;7.90;99.90;;;;;;5052892;28;20040;-87
2023/01/31 12:53:21;;;;;;;6.90;1.10;;;7.90;99.90;;;;;;5060135;28;20037;-87
2023/01/31 12:56:14;;;;;;;9.52;2.15;;;8.40;99.90;;;;;;5055922;28;20048;-90
2023/01/31 12:58:59;;;;;;;7.53;1.08;;;8.00;99.90;;;;;;5059726;28;20045;-85
2023/01/31 13:01:31;;;;;;;9.75;1.25;;;8.10;99.90;;;;;;5053910;28;20043;-86
2023/01/31 13:04:18;;;;;;;19.73;1.40;;;8.10;99.90;;;;;;5062389;28;20060;-85
2023/01/31 13:06:49;;;;;;;8.27;2.25;;;8.20;99.90;;;;;;5063787;28;20530;-85
2023/01/31 13:09:29;;;;;;;7.03;0.98;;;8.10;99.90;;;;;;5063247;28;20080;-84
2023/01/31 13:12:03;;;;;;;12.68;1.73;;;8.20;99.90;;;;;;5062900;28;20040;-86
2023/01/31 13:14:34;;;;;;;4.38;1.52;;;8.20;99.90;;;;;;5061322;28;20041;-86
2023/01/31 13:17:04;;;;;;;6.85;0.88;;;9.10;99.90;;;;;;5052071;28;20039;-85
2023/01/31 13:19:45;;;;;;;11.80;1.17;;;9.30;99.90;;;;;;5061735;28;20044;-85
2023/01/31 13:22:22;;;;;;;11.70;1.58;;;8.20;99.90;;;;;;5062763;28;20052;-86
2023/01/31 13:25:04;;;;;;;4.45;0.93;;;8.20;99.90;;;;;;5064665;28;20119;-86
2023/01/31 13:27:35;;;;;;;15.05;2.00;;;9.30;99.90;;;;;;5049623;28;20036;-85